Birch, Minnesota
Current Conditions -  °F | °C
As of 4:34 AM on Saturday 25 Oct 2014 (Local Time) from KVWU Reporting Station
Clear Clear  
Wind Chill: 41°   Ceiling: Unl
Heat Index: 46°   Visibility: 10mi
Dew Point: 37°   Wind: 10mph
Humidity: 71%   Direction: 270°W
Pressure: 29.89"   Gusts: 20mph
Location:  47.7306°N, 94.3762°W
Report Text: KVWU 250934Z AUTO 27009G17KT 10SM CLR 08/03 A2989 RMK AO2
Loading
Personal Weather Stations






























Interactive Weather Map
Tropical Storm Tracking
New forecast layout! Learn more

10-Day Weather Forecast

Advertisements
Track Severe Weather on mobile